createdAt,value
2022-09-07T00:00:48.658Z,85.24
2022-09-07T00:03:16.951Z,85.79
2022-09-07T00:05:45.927Z,85.89
2022-09-07T00:08:15.122Z,85.60
2022-09-07T00:10:51.088Z,85.42
2022-09-07T00:13:19.105Z,85.85
2022-09-07T00:15:46.938Z,86.12
2022-09-07T00:18:14.781Z,86.04
2022-09-07T00:20:43.576Z,87.20
2022-09-07T00:23:11.548Z,87.12
2022-09-07T00:25:40.033Z,87.13
2022-09-07T00:28:08.253Z,86.29
2022-09-07T00:30:41.159Z,86.10
2022-09-07T00:33:09.460Z,86.53
2022-09-07T00:35:41.155Z,86.13
2022-09-07T00:38:08.982Z,86.00
2022-09-07T00:40:36.796Z,86.00
2022-09-07T00:43:05.434Z,85.99
2022-09-07T00:45:33.220Z,86.08
2022-09-07T00:48:04.181Z,86.52
2022-09-07T00:50:38.028Z,86.99
2022-09-07T00:53:12.307Z,87.29
2022-09-07T00:55:41.398Z,87.30
2022-09-07T00:58:09.530Z,87.35
2022-09-07T01:00:38.155Z,87.15
2022-09-07T01:03:06.630Z,86.91
2022-09-07T01:05:46.305Z,86.94
2022-09-07T01:08:14.219Z,87.05
2022-09-07T01:10:42.065Z,87.43
2022-09-07T01:13:10.172Z,88.24
2022-09-07T01:15:44.157Z,88.23
2022-09-07T01:18:26.574Z,87.99
2022-09-07T01:21:13.515Z,87.94
2022-09-07T01:23:59.808Z,88.12
2022-09-07T01:26:30.579Z,88.01
2022-09-07T01:29:03.880Z,87.95
2022-09-07T01:31:40.923Z,88.00
2022-09-07T01:34:20.771Z,88.02
2022-09-07T01:37:07.185Z,88.27
2022-09-07T01:39:40.898Z,88.29
2022-09-07T01:42:11.585Z,87.90
2022-09-07T01:44:42.647Z,87.87
2022-09-07T01:47:39.902Z,88.41
2022-09-07T01:50:19.819Z,88.37
2022-09-07T01:52:51.914Z,88.17
2022-09-07T01:55:27.621Z,88.15
2022-09-07T01:58:03.725Z,88.15
2022-09-07T02:00:33.937Z,88.52
2022-09-07T02:03:12.328Z,88.60
2022-09-07T02:05:46.365Z,89.33
2022-09-07T02:08:17.257Z,88.76
2022-09-07T02:10:45.301Z,88.78
2022-09-07T02:13:15.823Z,88.90
2022-09-07T02:16:01.674Z,88.91
2022-09-07T02:18:33.318Z,88.72
2022-09-07T02:21:01.860Z,88.85
2022-09-07T02:23:32.667Z,88.52
2022-09-07T02:26:05.243Z,88.52
2022-09-07T02:28:34.069Z,88.88
2022-09-07T02:31:03.009Z,89.13
2022-09-07T02:33:31.391Z,88.94
2022-09-07T02:36:00.809Z,89.11
2022-09-07T02:38:28.674Z,89.36
2022-09-07T02:40:58.358Z,89.54
2022-09-07T02:43:27.242Z,89.65
2022-09-07T02:46:13.845Z,89.34
2022-09-07T02:48:54.846Z,89.15
2022-09-07T02:51:34.733Z,88.98
2022-09-07T02:54:13.006Z,89.02
2022-09-07T02:56:50.804Z,89.28
2022-09-07T02:59:18.618Z,89.06
2022-09-07T03:02:01.757Z,88.91
2022-09-07T03:04:43.377Z,88.77
2022-09-07T03:07:14.834Z,88.62
2022-09-07T03:09:46.694Z,88.32
2022-09-07T03:12:14.690Z,88.45
2022-09-07T03:14:43.454Z,88.29
2022-09-07T03:17:12.234Z,88.39
2022-09-07T03:19:39.966Z,88.79
2022-09-07T03:22:08.181Z,88.91
2022-09-07T03:24:36.892Z,88.85
2022-09-07T03:27:04.758Z,88.93
2022-09-07T03:29:32.661Z,88.72
2022-09-07T03:32:00.479Z,89.17
2022-09-07T03:34:28.240Z,89.24
2022-09-07T03:36:56.292Z,89.16
2022-09-07T03:39:26.691Z,89.44
2022-09-07T03:41:54.583Z,89.45
2022-09-07T03:44:22.454Z,89.61
2022-09-07T03:46:50.418Z,89.89
2022-09-07T03:49:18.224Z,89.88
2022-09-07T03:51:46.089Z,89.96
2022-09-07T03:54:13.876Z,89.99
2022-09-07T03:56:41.710Z,90.04
2022-09-07T03:59:09.542Z,90.22
2022-09-07T04:01:37.386Z,90.10
2022-09-07T04:04:05.490Z,90.47
2022-09-07T04:06:33.656Z,90.94
2022-09-07T04:09:03.672Z,90.99
2022-09-07T04:11:32.163Z,91.09
2022-09-07T04:13:59.918Z,91.52
2022-09-07T04:16:27.935Z,91.72
2022-09-07T04:18:56.166Z,91.67
2022-09-07T04:21:25.110Z,91.88
2022-09-07T04:23:53.394Z,91.94
2022-09-07T04:26:23.039Z,92.24
2022-09-07T04:28:51.277Z,92.13
2022-09-07T04:31:19.822Z,92.08
2022-09-07T04:33:48.999Z,91.95
2022-09-07T04:36:17.791Z,92.11
2022-09-07T04:38:45.850Z,92.12
2022-09-07T04:41:14.895Z,91.92
2022-09-07T04:43:43.536Z,92.04
2022-09-07T04:46:17.944Z,92.07
2022-09-07T04:48:49.544Z,92.10
2022-09-07T04:51:18.035Z,92.01
2022-09-07T04:53:48.196Z,91.86
2022-09-07T04:56:17.252Z,92.24
2022-09-07T04:58:45.979Z,91.76
2022-09-07T05:01:18.422Z,91.75
2022-09-07T05:03:46.497Z,91.86
2022-09-07T05:06:15.584Z,91.67
2022-09-07T05:08:44.483Z,91.87
2022-09-07T05:11:13.006Z,92.43
2022-09-07T05:13:41.131Z,92.44
2022-09-07T05:16:15.587Z,92.73
2022-09-07T05:18:43.814Z,92.88
2022-09-07T05:21:15.242Z,92.62
2022-09-07T05:23:44.851Z,92.61
2022-09-07T05:26:13.192Z,93.04
2022-09-07T05:28:41.266Z,92.90
2022-09-07T05:36:37.409Z,94.20
2022-09-07T05:39:06.018Z,94.04
2022-09-07T05:41:34.287Z,94.27
2022-09-07T05:46:51.521Z,94.70
2022-09-07T05:49:19.297Z,94.64
2022-09-07T05:51:48.481Z,94.73
2022-09-07T05:54:16.764Z,94.63
2022-09-07T05:56:44.806Z,94.58
2022-09-07T05:59:12.803Z,94.77
2022-09-07T06:01:41.035Z,94.50
2022-09-07T06:04:09.190Z,95.08
2022-09-07T06:06:38.971Z,95.69
2022-09-07T06:09:07.986Z,95.96
2022-09-07T06:11:36.735Z,96.20
2022-09-07T06:14:04.514Z,96.49
2022-09-07T06:16:33.735Z,96.70
2022-09-07T06:19:05.981Z,96.85
2022-09-07T06:21:37.825Z,96.87
2022-09-07T06:24:05.934Z,96.44
2022-09-07T06:26:33.715Z,96.00
2022-09-07T06:29:02.243Z,95.99
2022-09-07T06:31:30.606Z,95.77
2022-09-07T06:33:58.935Z,95.55
2022-09-07T06:36:27.916Z,95.86
2022-09-07T06:38:56.885Z,95.88
2022-09-07T06:44:19.033Z,96.03
2022-09-07T06:49:30.314Z,95.63
2022-09-07T06:51:58.194Z,95.31
2022-09-07T06:57:13.787Z,95.63
2022-09-07T06:59:41.903Z,95.92
2022-09-07T07:02:11.637Z,95.86
2022-09-07T07:04:41.069Z,95.87
2022-09-07T07:07:13.148Z,95.80
2022-09-07T07:09:41.903Z,95.94
2022-09-07T07:12:10.450Z,95.79
2022-09-07T07:14:44.105Z,95.58
2022-09-07T07:17:13.642Z,95.60
2022-09-07T07:19:41.670Z,95.65
2022-09-07T07:24:57.256Z,95.43
2022-09-07T07:27:25.366Z,95.49
2022-09-07T07:29:53.970Z,95.57
2022-09-07T07:32:22.122Z,95.51
2022-09-07T07:34:50.086Z,95.35
2022-09-07T07:37:17.773Z,95.57
2022-09-07T07:42:34.021Z,95.46
2022-09-07T07:47:52.732Z,95.10
2022-09-07T07:50:35.798Z,94.89
2022-09-07T07:55:51.760Z,94.60
2022-09-07T07:58:20.149Z,94.53
2022-09-07T08:00:54.741Z,94.40
2022-09-07T08:03:23.767Z,94.14
2022-09-07T08:05:52.255Z,93.89
2022-09-07T08:08:20.565Z,93.42
2022-09-07T08:10:48.414Z,93.22
2022-09-07T08:13:16.762Z,93.08
2022-09-07T08:15:46.506Z,92.91
2022-09-07T08:18:15.871Z,92.65
2022-09-07T08:20:43.837Z,92.36
2022-09-07T08:23:12.089Z,92.06
2022-09-07T08:25:48.735Z,92.16
2022-09-07T08:28:16.546Z,91.49
2022-09-07T08:30:44.416Z,90.37
2022-09-07T08:33:12.287Z,88.54
2022-09-07T08:35:40.356Z,88.10
2022-09-07T08:38:08.347Z,86.74
2022-09-07T08:40:37.321Z,84.58
2022-09-07T08:43:10.728Z,82.55
2022-09-07T08:45:42.288Z,82.51
2022-09-07T08:48:14.537Z,80.82
2022-09-07T08:50:51.596Z,79.98
2022-09-07T08:53:21.017Z,79.13
2022-09-07T08:55:55.617Z,79.86
2022-09-07T08:58:48.805Z,80.22
2022-09-07T09:01:35.701Z,79.62
2022-09-07T09:04:21.176Z,79.31
2022-09-07T09:07:08.118Z,79.62
2022-09-07T09:09:46.086Z,79.66
2022-09-07T09:12:16.723Z,79.54
2022-09-07T09:14:56.762Z,78.90
2022-09-07T09:17:27.625Z,78.09
2022-09-07T09:20:06.929Z,77.11
2022-09-07T09:22:35.217Z,77.82
2022-09-07T09:25:22.584Z,77.97
2022-09-07T09:27:50.342Z,78.49
2022-09-07T09:30:19.449Z,78.22
2022-09-07T09:32:48.887Z,78.18
2022-09-07T09:35:19.971Z,78.09
2022-09-07T09:37:47.667Z,77.32
2022-09-07T09:40:34.539Z,76.12
2022-09-07T09:43:06.407Z,75.72
2022-09-07T09:48:31.935Z,75.17
2022-09-07T09:54:01.950Z,73.91
2022-09-07T09:56:44.077Z,74.44
2022-09-07T10:05:29.932Z,73.08
2022-09-07T10:07:58.169Z,73.12
2022-09-07T10:10:27.680Z,70.78
2022-09-07T10:12:55.993Z,67.78
2022-09-07T10:15:29.220Z,66.55
2022-09-07T10:17:58.460Z,65.99
2022-09-07T10:20:31.506Z,65.38
2022-09-07T10:22:59.761Z,64.98
2022-09-07T10:25:36.851Z,65.33
2022-09-07T10:28:04.549Z,64.12
2022-09-07T10:30:37.944Z,65.16
2022-09-07T10:33:10.521Z,64.57
2022-09-07T10:35:49.059Z,64.05
2022-09-07T10:38:21.204Z,64.92
2022-09-07T10:40:48.841Z,64.97
2022-09-07T10:43:21.114Z,64.16
2022-09-07T10:45:58.651Z,63.97
2022-09-07T10:48:40.018Z,63.40
2022-09-07T10:51:18.111Z,62.46
2022-09-07T10:54:36.887Z,61.32
2022-09-07T10:57:04.881Z,60.88
2022-09-07T11:00:07.956Z,60.06
2022-09-07T11:02:39.387Z,60.72
2022-09-07T11:05:07.558Z,62.17
2022-09-07T11:07:38.396Z,62.32
2022-09-07T11:10:12.294Z,61.12
2022-09-07T11:12:42.007Z,61.45
2022-09-07T11:15:10.081Z,61.93
2022-09-07T11:17:52.951Z,62.30
2022-09-07T11:20:30.286Z,62.43
2022-09-07T11:23:11.255Z,61.33
2022-09-07T11:25:48.113Z,59.93
2022-09-07T11:28:25.785Z,60.53
2022-09-07T11:31:00.342Z,60.17
2022-09-07T11:33:28.742Z,59.08
2022-09-07T11:36:12.062Z,59.56
2022-09-07T11:38:43.514Z,59.54
2022-09-07T11:41:20.592Z,59.28
2022-09-07T11:43:56.760Z,59.32
2022-09-07T11:46:32.338Z,59.34
2022-09-07T11:49:03.347Z,60.01
2022-09-07T11:51:32.220Z,59.62
2022-09-07T11:54:02.238Z,58.03
2022-09-07T11:56:36.337Z,58.11
2022-09-07T11:59:22.973Z,58.06
2022-09-07T12:01:57.368Z,58.07
2022-09-07T12:04:43.958Z,58.31
2022-09-07T12:07:14.727Z,58.49
2022-09-07T12:09:54.877Z,58.94
2022-09-07T12:12:43.739Z,58.32
2022-09-07T12:15:11.640Z,58.71
2022-09-07T12:17:59.722Z,57.75
2022-09-07T12:20:41.544Z,57.95
2022-09-07T12:23:15.526Z,57.28
2022-09-07T12:25:44.436Z,57.35
2022-09-07T12:28:19.954Z,56.02
2022-09-07T12:31:12.464Z,54.45
2022-09-07T12:33:40.701Z,53.81
2022-09-07T12:36:26.584Z,53.40
2022-09-07T12:39:17.403Z,52.37
2022-09-07T12:41:47.447Z,52.96
2022-09-07T12:44:16.998Z,53.24
2022-09-07T12:46:46.652Z,53.81
2022-09-07T12:49:14.693Z,54.21
2022-09-07T12:55:04.399Z,52.84
2022-09-07T12:57:51.611Z,53.31
2022-09-07T13:00:42.517Z,53.90
2022-09-07T13:07:01.617Z,54.76
2022-09-07T13:09:15.771Z,54.13
2022-09-07T13:11:43.632Z,54.28
2022-09-07T13:14:15.831Z,52.79
2022-09-07T13:19:52.082Z,53.35
2022-09-07T13:22:35.408Z,53.21
2022-09-07T13:25:26.506Z,51.65
2022-09-07T13:27:55.701Z,51.82
2022-09-07T13:30:43.668Z,52.52
2022-09-07T13:33:23.904Z,53.64
2022-09-07T13:35:53.145Z,53.87
2022-09-07T13:38:21.778Z,53.94
2022-09-07T13:40:52.258Z,52.41
2022-09-07T13:43:21.606Z,51.93
2022-09-07T13:45:52.978Z,52.81
2022-09-07T13:48:20.925Z,52.90
2022-09-07T13:50:49.402Z,53.06
2022-09-07T13:53:44.674Z,52.87
2022-09-07T13:56:15.361Z,52.81
2022-09-07T13:58:46.596Z,53.32
2022-09-07T14:01:23.937Z,53.16
2022-09-07T14:03:53.799Z,53.20
2022-09-07T14:06:21.559Z,52.56
2022-09-07T14:08:53.633Z,52.60
2022-09-07T14:11:23.535Z,53.57
2022-09-07T14:14:09.626Z,53.79
2022-09-07T14:16:38.229Z,53.73
2022-09-07T14:19:10.421Z,53.32
2022-09-07T14:21:39.273Z,53.41
2022-09-07T14:24:18.896Z,53.76
2022-09-07T14:26:48.113Z,53.96
2022-09-07T14:29:27.461Z,53.65
2022-09-07T14:31:55.617Z,53.51
2022-09-07T14:34:26.362Z,53.96
2022-09-07T14:36:54.830Z,54.33
2022-09-07T14:39:23.977Z,54.36
2022-09-07T14:41:51.997Z,54.35
2022-09-07T14:44:46.313Z,54.90
2022-09-07T14:47:23.338Z,54.87
2022-09-07T14:49:56.096Z,55.14
2022-09-07T14:52:33.341Z,55.43
2022-09-07T14:55:06.746Z,55.61
2022-09-07T14:57:34.546Z,55.93
2022-09-07T15:00:29.513Z,56.24
2022-09-07T15:02:57.288Z,56.40
2022-09-07T15:05:26.802Z,56.43
2022-09-07T15:07:54.726Z,56.56
2022-09-07T15:10:23.537Z,56.65
2022-09-07T15:13:01.582Z,56.83
2022-09-07T15:15:41.375Z,57.09
2022-09-07T15:18:44.882Z,57.10
2022-09-07T15:21:13.142Z,57.35
2022-09-07T15:23:41.006Z,57.65
2022-09-07T15:27:02.069Z,57.78
2022-09-07T15:29:14.232Z,57.95
2022-09-07T15:31:47.290Z,58.27
2022-09-07T15:34:25.106Z,58.75
2022-09-07T15:36:55.366Z,59.11
2022-09-07T15:39:25.611Z,59.67
2022-09-07T15:41:53.767Z,60.16
2022-09-07T15:44:26.119Z,60.36
2022-09-07T15:49:49.555Z,61.58
2022-09-07T15:52:19.590Z,62.03
2022-09-07T15:54:47.462Z,62.23
2022-09-07T16:00:04.469Z,62.75
2022-09-07T16:05:31.152Z,63.19
2022-09-07T16:11:05.096Z,63.39
2022-09-07T16:13:33.780Z,63.44
2022-09-07T16:16:04.740Z,63.69
2022-09-07T16:18:33.769Z,64.24
2022-09-07T16:21:11.504Z,64.56
2022-09-07T16:23:41.077Z,64.40
2022-09-07T16:26:10.559Z,64.71
2022-09-07T16:28:40.056Z,65.07
2022-09-07T16:31:09.727Z,65.29
2022-09-07T16:33:37.736Z,65.39
2022-09-07T16:36:07.353Z,65.31
2022-09-07T16:38:50.628Z,65.41
2022-09-07T16:41:23.501Z,65.50
2022-09-07T16:43:51.336Z,65.59
2022-09-07T16:46:20.979Z,65.59
2022-09-07T16:48:50.173Z,65.89
2022-09-07T16:51:22.859Z,66.11
2022-09-07T16:53:51.703Z,65.82
2022-09-07T16:56:21.148Z,66.19
2022-09-07T16:58:51.132Z,66.06
2022-09-07T17:01:20.529Z,66.05
2022-09-07T17:03:51.692Z,66.24
2022-09-07T17:06:20.737Z,66.56
2022-09-07T17:08:48.554Z,66.71
2022-09-07T17:11:21.961Z,66.95
2022-09-07T17:13:50.032Z,66.89
2022-09-07T17:16:20.011Z,66.97
2022-09-07T17:21:37.692Z,67.78
2022-09-07T17:24:06.893Z,67.88
2022-09-07T17:26:34.662Z,68.29
2022-09-07T17:29:02.446Z,68.53
2022-09-07T17:34:19.865Z,68.57
2022-09-07T17:36:48.343Z,68.50
2022-09-07T17:39:17.613Z,68.53
2022-09-07T17:41:47.802Z,68.69
2022-09-07T17:44:16.115Z,68.92
2022-09-07T17:46:44.109Z,69.25
2022-09-07T17:49:14.123Z,69.10
2022-09-07T17:51:42.595Z,69.08
2022-09-07T17:54:12.094Z,69.17
2022-09-07T17:56:40.898Z,69.48
2022-09-07T18:01:56.700Z,69.52
2022-09-07T18:04:24.635Z,69.49
2022-09-07T18:06:54.191Z,69.41
2022-09-07T18:09:22.242Z,69.44
2022-09-07T18:11:50.685Z,69.65
2022-09-07T18:14:19.056Z,69.72
2022-09-07T18:16:48.971Z,69.90
2022-09-07T18:19:18.381Z,69.77
2022-09-07T18:21:48.149Z,69.78
2022-09-07T18:24:18.144Z,70.06
2022-09-07T18:26:50.632Z,70.02
2022-09-07T18:29:33.578Z,70.08
2022-09-07T18:32:05.725Z,70.11
2022-09-07T18:34:40.651Z,70.08
2022-09-07T18:37:09.937Z,70.04
2022-09-07T18:39:37.749Z,70.25
2022-09-07T18:42:06.165Z,70.46
2022-09-07T18:47:27.980Z,70.79
2022-09-07T18:49:58.354Z,71.23
2022-09-07T18:55:15.515Z,71.20
2022-09-07T18:57:43.244Z,71.34
2022-09-07T19:00:11.729Z,71.23
2022-09-07T19:02:39.516Z,71.18
2022-09-07T19:07:55.599Z,71.65
2022-09-07T19:10:23.467Z,71.47
2022-09-07T19:12:51.438Z,71.43
2022-09-07T19:15:20.549Z,71.92
2022-09-07T19:17:48.507Z,72.03
2022-09-07T19:20:16.433Z,72.07
2022-09-07T19:22:44.164Z,72.22
2022-09-07T19:25:12.037Z,72.18
2022-09-07T19:27:39.872Z,72.65
2022-09-07T19:30:08.762Z,72.70
2022-09-07T19:32:36.724Z,72.92
2022-09-07T19:35:04.897Z,72.80
2022-09-07T19:37:33.171Z,72.87
2022-09-07T19:40:02.255Z,72.94
2022-09-07T19:42:30.846Z,72.98
2022-09-07T19:44:59.513Z,72.88
2022-09-07T19:47:27.352Z,72.75
2022-09-07T19:49:55.184Z,72.54
2022-09-07T19:52:22.897Z,72.55
2022-09-07T19:54:50.802Z,72.55
2022-09-07T19:57:18.865Z,72.46
2022-09-07T19:59:47.450Z,72.67
2022-09-07T20:02:15.414Z,72.64
2022-09-07T20:04:43.287Z,72.75
2022-09-07T20:07:12.661Z,72.77
2022-09-07T20:09:40.554Z,72.76
2022-09-07T20:12:08.725Z,72.86
2022-09-07T20:14:37.081Z,72.96
2022-09-07T20:17:04.874Z,73.01
2022-09-07T20:19:32.733Z,73.00
2022-09-07T20:22:00.423Z,72.94
2022-09-07T20:24:28.668Z,73.04
2022-09-07T20:26:56.515Z,73.07
2022-09-07T20:29:27.652Z,72.97
2022-09-07T20:32:00.629Z,72.95
2022-09-07T20:34:29.149Z,73.36
2022-09-07T20:36:57.275Z,73.15
2022-09-07T20:39:25.434Z,73.33
2022-09-07T20:41:53.463Z,73.14
2022-09-07T20:44:21.381Z,73.32
2022-09-07T20:46:49.277Z,73.28
2022-09-07T20:49:17.224Z,73.51
2022-09-07T20:51:44.977Z,73.44
2022-09-07T20:54:12.642Z,73.65
2022-09-07T20:56:40.451Z,73.75
2022-09-07T20:59:08.524Z,73.96
2022-09-07T21:01:36.774Z,73.89
2022-09-07T21:04:06.352Z,74.31
2022-09-07T21:06:44.410Z,74.44
2022-09-07T21:09:12.176Z,74.58
2022-09-07T21:11:44.189Z,74.62
2022-09-07T21:14:13.962Z,74.53
2022-09-07T21:16:42.808Z,74.48
2022-09-07T21:19:13.778Z,74.52
2022-09-07T21:21:42.472Z,74.74
2022-09-07T21:24:18.331Z,75.22
2022-09-07T21:26:46.923Z,75.02
2022-09-07T21:29:19.114Z,75.21
2022-09-07T21:31:47.771Z,75.37
2022-09-07T21:34:16.075Z,75.62
2022-09-07T21:36:44.025Z,75.55
2022-09-07T21:39:14.464Z,75.93
2022-09-07T21:41:43.541Z,75.97
2022-09-07T21:44:13.631Z,76.16
2022-09-07T21:46:42.161Z,76.71
2022-09-07T21:49:10.088Z,76.13
2022-09-07T21:51:38.181Z,76.39
2022-09-07T21:54:06.433Z,76.64
2022-09-07T21:56:34.188Z,76.45
2022-09-07T21:59:02.571Z,76.45
2022-09-07T22:01:31.052Z,76.55
2022-09-07T22:04:00.556Z,76.80
2022-09-07T22:06:29.623Z,76.70
2022-09-07T22:08:57.416Z,76.54
2022-09-07T22:11:26.848Z,77.14
2022-09-07T22:13:55.912Z,76.78
2022-09-07T22:16:23.904Z,76.91
2022-09-07T22:18:52.058Z,77.07
2022-09-07T22:21:21.157Z,77.03
2022-09-07T22:23:50.146Z,77.44
2022-09-07T22:26:19.445Z,77.25
2022-09-07T22:28:47.391Z,77.18
2022-09-07T22:31:15.089Z,77.29
2022-09-07T22:33:43.401Z,77.19
2022-09-07T22:36:22.578Z,77.11
2022-09-07T22:38:52.585Z,77.19
2022-09-07T22:41:21.992Z,77.05
2022-09-07T22:43:51.067Z,77.27
2022-09-07T22:46:20.350Z,77.70
2022-09-07T22:48:48.473Z,77.67
2022-09-07T22:51:16.845Z,77.85
2022-09-07T22:53:44.835Z,77.91
2022-09-07T22:56:14.116Z,78.42
2022-09-07T22:58:49.329Z,78.51
2022-09-07T23:01:17.922Z,78.59
2022-09-07T23:03:45.782Z,78.74
2022-09-07T23:06:26.138Z,78.92
2022-09-07T23:08:55.044Z,79.14
2022-09-07T23:11:24.333Z,78.99
2022-09-07T23:13:53.215Z,78.88
2022-09-07T23:16:21.564Z,79.17
2022-09-07T23:18:49.450Z,78.99
2022-09-07T23:21:17.452Z,78.98
2022-09-07T23:23:49.314Z,79.18
2022-09-07T23:26:17.130Z,79.18
2022-09-07T23:28:44.952Z,79.05
2022-09-07T23:31:12.809Z,79.13
2022-09-07T23:33:40.795Z,79.08
2022-09-07T23:36:09.868Z,79.29
2022-09-07T23:38:37.631Z,79.41
2022-09-07T23:41:05.600Z,79.60
2022-09-07T23:43:33.724Z,79.61
2022-09-07T23:46:01.995Z,79.45
2022-09-07T23:48:30.276Z,79.57
2022-09-07T23:50:58.234Z,79.79
2022-09-07T23:53:26.182Z,79.94
2022-09-07T23:55:53.979Z,79.90
2022-09-07T23:58:22.318Z,79.63
